Uniontown, WA (99179)

6:44 AM PDT on August 26, 2016 (GMT -0700)
Town of Colton | | Change Station
Active Advisory: Fire Weather Watch

Elev 2579 ft 46.57 °N, 117.12 °W | Updated 22 seconds ago

Clear
Clear
42.1 °F
Feels Like 42 °F
N
0.0
Wind Variable Wind from North
Gusts 0.0 mph

Today
High -- | Low -- °F
--% Chance of Precip.
Yesterday
High -- | Low -- °F
Precip. -- in
Pressure 29.96 in
Visibility 10.0 miles
Clouds Clear
Windchill 42 °F
Dew Point 32 °F
Humidity 67%
Rainfall 0.00 in
Snow Depth Not available.
6:01 AM 7:37 PM
Waning Crescent, 34% visible
METAR KLWS 261256Z AUTO 18004KT 10SM CLR 13/01 A2999 RMK AO2 SLP146 T01330011
Pressure 29.96 in
Visibility 10.0 miles
Clouds Clear
Windchill 42 °F
Dew Point 32 °F
Humidity 67%
Rainfall 0.00 in
Snow Depth Not available.
6:01 AM 7:37 PM
Waning Crescent, 34% visible
METAR KLWS 261256Z AUTO 18004KT 10SM CLR 13/01 A2999 RMK AO2 SLP146 T01330011

10-Day Weather Forecast

Almanac

Astronomy

Aug. 26, 2016 Rise Set
Actual Time
Civil Twilight
Nautical Twilight
Astronomical Twilight
Moon
Length of Visible Light
Length of Day
Tomorrow will be .
, % of the Moon is Illuminated

Today's Extremes

State Highs State Lows

Community

WunderPhotos

Upload Photos

1,935,084 photos uploaded!

WunderBlog® & News

Nearby

Air Quality

  Air Quality AQ Index Pollutant
Not available.

Snow Depth

Station Depth Elevation

Earthquake Activity

City Distance Mag. Time & Date
Minimum magnitude displayed is 2.5.

Coastal Water Temperatures

Place Temperature

Stations

Nearby Weather Stations

Station Location Temp. Windchill Dew Point Humidity Wind Precip. Elev Updated Type
                   

Watches & Warnings

Fire Weather Watch
Issued: 3:35 AM PDT Aug. 26, 2016 – National Weather Service

... Fire Weather Watch remains in effect from Saturday afternoon
through Saturday evening for gusty winds and low relative
humidity for northern and central Idaho Panhandle and East
Washington Palouse and Spokane area...

* affected area: fire weather zone 101 northern and central
Idaho Panhandle (zone 101) and fire weather zone 674 East
Washington Palouse and Spokane area (zone 674).

* Winds: southwest 10 to 20 mph with gusts up to 30 mph.

* Relative humidities: 13 to 27 percent.

* Impacts: dry... warm... and breezy conditions will promote rapid
fire spread with any new or existing fires.

Precautionary/preparedness actions...

A Fire Weather Watch means that critical fire weather conditions
are forecast to occur. Listen for later forecasts and possible
red flag warnings.